createdAt,value
2022-09-12T00:01:22.033Z,13.77
2022-09-12T00:03:53.013Z,13.74
2022-09-12T00:06:29.430Z,13.75
2022-09-12T00:09:00.186Z,13.71
2022-09-12T00:11:28.161Z,13.68
2022-09-12T00:14:01.245Z,14.13
2022-09-12T00:16:30.273Z,14.12
2022-09-12T00:18:57.393Z,13.83
2022-09-12T00:21:24.864Z,13.73
2022-09-12T00:23:52.210Z,13.68
2022-09-12T00:26:20.792Z,13.63
2022-09-12T00:28:49.371Z,13.60
2022-09-12T00:31:19.450Z,13.60
2022-09-12T00:33:47.333Z,13.57
2022-09-12T00:36:18.043Z,13.56
2022-09-12T00:38:46.224Z,13.55
2022-09-12T00:41:25.759Z,13.54
2022-09-12T00:44:02.376Z,14.43
2022-09-12T00:46:33.128Z,14.23
2022-09-12T00:49:27.113Z,13.71
2022-09-12T00:52:06.708Z,13.51
2022-09-12T00:54:43.380Z,13.46
2022-09-12T00:57:14.403Z,13.48
2022-09-12T00:59:50.715Z,13.44
2022-09-12T01:02:18.383Z,13.37
2022-09-12T01:04:48.103Z,13.36
2022-09-12T01:07:15.714Z,13.33
2022-09-12T01:09:45.564Z,13.29
2022-09-12T01:12:16.354Z,14.50
2022-09-12T01:14:43.966Z,14.07
2022-09-12T01:17:15.608Z,13.58
2022-09-12T01:19:57.634Z,13.37
2022-09-12T01:22:49.267Z,13.29
2022-09-12T01:25:48.595Z,13.22
2022-09-12T01:28:54.541Z,13.14
2022-09-12T01:31:47.736Z,13.11
2022-09-12T01:34:21.810Z,13.08
2022-09-12T01:37:10.943Z,13.05
2022-09-12T01:40:07.737Z,13.02
2022-09-12T01:43:03.726Z,12.99
2022-09-12T01:45:39.478Z,13.22
2022-09-12T01:48:13.784Z,14.30
2022-09-12T01:50:47.697Z,13.45
2022-09-12T01:53:22.408Z,13.22
2022-09-12T01:55:57.553Z,13.14
2022-09-12T01:58:34.862Z,13.12
2022-09-12T02:01:16.804Z,13.07
2022-09-12T02:04:31.052Z,13.05
2022-09-12T02:07:15.383Z,12.97
2022-09-12T02:10:15.464Z,12.92
2022-09-12T02:12:50.436Z,12.92
2022-09-12T02:15:21.158Z,12.98
2022-09-12T02:17:52.081Z,14.12
2022-09-12T02:20:46.880Z,13.42
2022-09-12T02:23:24.045Z,13.06
2022-09-12T02:25:55.227Z,12.96
2022-09-12T02:28:28.581Z,12.94
2022-09-12T02:31:20.071Z,12.88
2022-09-12T02:34:02.333Z,12.84
2022-09-12T02:36:52.173Z,12.85
2022-09-12T02:39:21.996Z,12.80
2022-09-12T02:41:54.034Z,12.76
2022-09-12T02:44:23.004Z,12.74
2022-09-12T02:47:16.037Z,12.74
2022-09-12T02:49:43.693Z,13.70
2022-09-12T02:52:10.743Z,13.12
2022-09-12T02:54:38.512Z,12.88
2022-09-12T02:57:22.628Z,12.83
2022-09-12T02:59:57.504Z,12.79
2022-09-12T03:03:03.915Z,12.76
2022-09-12T03:05:49.584Z,12.74
2022-09-12T03:08:33.134Z,12.69
2022-09-12T03:11:18.383Z,12.70
2022-09-12T03:14:08.884Z,12.66
2022-09-12T03:16:41.789Z,12.64
2022-09-12T03:19:15.080Z,13.03
2022-09-12T03:22:09.533Z,13.77
2022-09-12T03:24:47.491Z,12.97
2022-09-12T03:27:29.864Z,12.78
2022-09-12T03:29:58.090Z,12.69
2022-09-12T03:33:01.074Z,12.64
2022-09-12T03:35:28.203Z,12.58
2022-09-12T03:37:55.262Z,12.53
2022-09-12T03:40:22.392Z,12.52
2022-09-12T03:42:49.884Z,12.48
2022-09-12T03:45:21.596Z,12.46
2022-09-12T03:47:49.391Z,12.47
2022-09-12T03:50:16.507Z,12.48
2022-09-12T03:52:46.454Z,12.69
2022-09-12T03:55:13.528Z,13.62
2022-09-12T03:57:41.084Z,12.93
2022-09-12T04:00:08.955Z,12.65
2022-09-12T04:02:42.552Z,12.56
2022-09-12T04:05:09.666Z,12.50
2022-09-12T04:07:36.658Z,12.49
2022-09-12T04:10:04.141Z,12.45
2022-09-12T04:12:32.407Z,12.44
2022-09-12T04:14:59.646Z,12.45
2022-09-12T04:17:26.890Z,12.40
2022-09-12T04:19:54.110Z,12.41
2022-09-12T04:22:21.299Z,12.38
2022-09-12T04:24:48.404Z,12.86
2022-09-12T04:27:15.456Z,13.66
2022-09-12T04:29:42.915Z,12.82
2022-09-12T04:32:10.323Z,12.58
2022-09-12T04:34:37.576Z,12.47
2022-09-12T04:37:04.924Z,12.43
2022-09-12T04:39:32.119Z,12.40
2022-09-12T04:42:01.574Z,12.37
2022-09-12T04:44:29.134Z,12.34
2022-09-12T04:46:56.113Z,12.31
2022-09-12T04:49:23.550Z,12.29
2022-09-12T04:51:53.464Z,12.28
2022-09-12T04:54:21.151Z,12.74
2022-09-12T04:56:50.379Z,13.30
2022-09-12T04:59:21.768Z,12.61
2022-09-12T05:01:49.105Z,12.46
2022-09-12T05:04:16.349Z,12.36
2022-09-12T05:06:44.157Z,12.32
2022-09-12T05:09:12.828Z,12.26
2022-09-12T05:14:41.329Z,12.23
2022-09-12T05:17:08.755Z,12.22
2022-09-12T05:19:37.210Z,12.21
2022-09-12T05:22:07.711Z,12.24
2022-09-12T05:24:35.431Z,12.24
2022-09-12T05:27:04.942Z,12.24
2022-09-12T05:29:32.518Z,12.27
2022-09-12T05:31:59.733Z,12.69
2022-09-12T05:34:28.145Z,13.01
2022-09-12T05:36:55.391Z,12.62
2022-09-12T05:39:22.566Z,12.55
2022-09-12T05:41:49.959Z,12.54
2022-09-12T05:44:18.261Z,12.58
2022-09-12T05:46:48.809Z,12.62
2022-09-12T05:49:16.135Z,12.66
2022-09-12T05:51:46.060Z,12.75
2022-09-12T05:54:15.983Z,13.48
2022-09-12T05:56:44.302Z,13.82
2022-09-12T05:59:13.357Z,13.27
2022-09-12T06:01:41.071Z,13.17
2022-09-12T06:04:09.203Z,13.18
2022-09-12T06:06:45.354Z,13.21
2022-09-12T06:09:14.791Z,13.24
2022-09-12T06:11:42.697Z,13.29
2022-09-12T06:14:12.954Z,13.31
2022-09-12T06:16:40.808Z,13.41
2022-09-12T06:19:15.249Z,13.42
2022-09-12T06:21:42.375Z,13.51
2022-09-12T06:24:10.112Z,14.15
2022-09-12T06:26:37.700Z,14.17
2022-09-12T06:29:05.206Z,13.87
2022-09-12T06:31:35.266Z,13.83
2022-09-12T06:34:05.111Z,13.83
2022-09-12T06:36:35.154Z,13.86
2022-09-12T06:39:09.103Z,13.91
2022-09-12T06:41:38.456Z,13.93
2022-09-12T06:44:13.170Z,14.10
2022-09-12T06:46:40.223Z,14.96
2022-09-12T06:49:08.299Z,14.62
2022-09-12T06:51:38.590Z,14.45
2022-09-12T06:54:06.962Z,14.41
2022-09-12T06:56:34.469Z,14.44
2022-09-12T06:59:01.904Z,14.49
2022-09-12T07:01:33.363Z,14.58
2022-09-12T07:04:03.269Z,14.98
2022-09-12T07:06:35.192Z,15.43
2022-09-12T07:09:10.886Z,15.01
2022-09-12T07:11:40.074Z,14.94
2022-09-12T07:14:09.709Z,14.97
2022-09-12T07:16:37.545Z,14.97
2022-09-12T07:19:06.667Z,14.99
2022-09-12T07:21:36.695Z,15.01
2022-09-12T07:24:04.095Z,15.03
2022-09-12T07:26:31.514Z,15.64
2022-09-12T07:29:25.199Z,16.22
2022-09-12T07:31:47.308Z,15.66
2022-09-12T07:34:14.537Z,16.34
2022-09-12T07:36:41.719Z,16.21
2022-09-12T07:39:10.857Z,15.87
2022-09-12T07:41:38.288Z,15.86
2022-09-12T07:44:08.608Z,15.89
2022-09-12T07:46:35.886Z,15.90
2022-09-12T07:49:03.842Z,15.97
2022-09-12T07:51:31.730Z,16.10
2022-09-12T07:53:59.458Z,16.22
2022-09-12T07:56:31.161Z,16.83
2022-09-12T07:59:00.146Z,16.96
2022-09-12T08:01:30.351Z,16.73
2022-09-12T08:04:00.044Z,16.65
2022-09-12T08:06:30.584Z,16.74
2022-09-12T08:08:59.034Z,17.27
2022-09-12T08:11:31.083Z,17.90
2022-09-12T08:13:58.873Z,17.30
2022-09-12T08:16:28.559Z,17.22
2022-09-12T08:19:01.963Z,17.19
2022-09-12T08:21:32.467Z,17.28
2022-09-12T08:24:02.465Z,17.55
2022-09-12T08:26:32.035Z,18.76
2022-09-12T08:28:59.864Z,18.06
2022-09-12T08:31:28.272Z,17.94
2022-09-12T08:33:57.154Z,17.86
2022-09-12T08:36:27.013Z,17.91
2022-09-12T08:38:59.614Z,17.94
2022-09-12T08:41:44.678Z,19.43
2022-09-12T08:44:33.667Z,18.77
2022-09-12T08:47:11.041Z,18.57
2022-09-12T08:50:03.006Z,18.59
2022-09-12T08:52:33.969Z,20.21
2022-09-12T08:55:03.318Z,19.54
2022-09-12T08:57:30.596Z,19.14
2022-09-12T08:59:58.097Z,19.14
2022-09-12T09:02:40.837Z,19.20
2022-09-12T09:05:35.582Z,19.25
2022-09-12T09:08:11.672Z,19.23
2022-09-12T09:11:11.032Z,19.43
2022-09-12T09:14:05.221Z,20.59
2022-09-12T09:16:38.176Z,20.07
2022-09-12T09:19:17.596Z,21.05
2022-09-12T09:21:56.057Z,20.71
2022-09-12T09:24:33.871Z,20.38
2022-09-12T09:27:39.916Z,20.32
2022-09-12T09:30:16.900Z,20.31
2022-09-12T09:32:49.891Z,20.14
2022-09-12T09:35:38.192Z,20.36
2022-09-12T09:38:28.471Z,20.58
2022-09-12T09:41:22.067Z,21.20
2022-09-12T09:43:49.396Z,22.31
2022-09-12T09:46:19.133Z,21.28
2022-09-12T09:48:49.966Z,22.66
2022-09-12T09:51:22.032Z,21.99
2022-09-12T09:53:57.997Z,21.58
2022-09-12T09:56:33.420Z,21.38
2022-09-12T09:59:25.862Z,21.45
2022-09-12T10:02:23.794Z,21.30
2022-09-12T10:04:59.094Z,21.41
2022-09-12T10:07:27.351Z,21.39
2022-09-12T10:10:23.871Z,22.68
2022-09-12T10:12:51.768Z,22.03
2022-09-12T10:15:26.319Z,21.84
2022-09-12T10:17:55.804Z,21.97
2022-09-12T10:20:39.857Z,23.52
2022-09-12T10:23:19.837Z,22.29
2022-09-12T10:25:53.947Z,22.18
2022-09-12T10:28:46.237Z,22.21
2022-09-12T10:31:43.290Z,22.17
2022-09-12T10:34:23.101Z,22.22
2022-09-12T10:36:54.388Z,23.64
2022-09-12T10:39:22.702Z,23.03
2022-09-12T10:41:50.130Z,22.33
2022-09-12T10:44:31.625Z,22.39
2022-09-12T10:47:00.661Z,22.28
2022-09-12T10:49:31.422Z,23.73
2022-09-12T10:52:21.954Z,23.03
2022-09-12T10:54:54.776Z,22.90
2022-09-12T10:57:54.334Z,22.78
2022-09-12T11:00:27.989Z,22.75
2022-09-12T11:03:11.349Z,22.46
2022-09-12T11:05:47.604Z,22.64
2022-09-12T11:08:42.248Z,23.75
2022-09-12T11:11:28.250Z,24.03
2022-09-12T11:14:19.688Z,22.95
2022-09-12T11:16:54.666Z,22.79
2022-09-12T11:19:38.479Z,22.73
2022-09-12T11:22:33.953Z,22.60
2022-09-12T11:25:30.136Z,22.29
2022-09-12T11:28:11.084Z,23.58
2022-09-12T11:30:49.868Z,24.10
2022-09-12T11:33:25.477Z,23.88
2022-09-12T11:35:55.667Z,24.40
2022-09-12T11:38:31.107Z,23.51
2022-09-12T11:41:20.931Z,23.27
2022-09-12T11:43:48.240Z,23.23
2022-09-12T11:46:34.295Z,23.23
2022-09-12T11:49:41.830Z,23.15
2022-09-12T11:52:15.122Z,23.10
2022-09-12T11:54:53.662Z,22.83
2022-09-12T11:57:50.203Z,22.93
2022-09-12T12:00:38.445Z,23.59
2022-09-12T12:03:37.453Z,24.42
2022-09-12T12:06:22.210Z,23.39
2022-09-12T12:08:51.811Z,23.32
2022-09-12T12:11:33.822Z,25.24
2022-09-12T12:14:04.909Z,23.85
2022-09-12T12:16:35.229Z,23.28
2022-09-12T12:19:19.262Z,23.32
2022-09-12T12:21:53.045Z,22.98
2022-09-12T12:24:26.320Z,23.08
2022-09-12T12:26:53.396Z,23.12
2022-09-12T12:29:20.338Z,23.04
2022-09-12T12:31:59.769Z,24.55
2022-09-12T12:34:39.054Z,24.36
2022-09-12T12:37:21.567Z,25.57
2022-09-12T12:39:49.442Z,24.46
2022-09-12T12:42:37.400Z,24.07
2022-09-12T12:45:27.322Z,23.88
2022-09-12T12:47:58.417Z,23.84
2022-09-12T12:50:29.449Z,23.91
2022-09-12T12:53:15.383Z,23.99
2022-09-12T12:55:42.387Z,25.29
2022-09-12T12:58:33.109Z,24.93
2022-09-12T13:01:06.413Z,24.51
2022-09-12T13:03:34.716Z,24.57
2022-09-12T13:06:05.731Z,24.75
2022-09-12T13:08:43.905Z,24.75
2022-09-12T13:11:38.883Z,24.79
2022-09-12T13:14:27.484Z,25.21
2022-09-12T13:16:58.800Z,26.59
2022-09-12T13:19:32.701Z,25.37
2022-09-12T13:22:06.594Z,24.84
2022-09-12T13:24:42.303Z,24.90
2022-09-12T13:27:24.296Z,24.98
2022-09-12T13:30:14.164Z,26.69
2022-09-12T13:32:44.068Z,25.66
2022-09-12T13:35:35.069Z,25.28
2022-09-12T13:38:16.225Z,25.11
2022-09-12T13:41:03.805Z,25.73
2022-09-12T13:43:42.305Z,27.01
2022-09-12T13:46:13.781Z,25.67
2022-09-12T13:48:41.376Z,25.27
2022-09-12T13:51:23.393Z,24.95
2022-09-12T13:53:53.964Z,25.23
2022-09-12T13:56:21.454Z,26.85
2022-09-12T13:59:00.542Z,27.50
2022-09-12T14:01:42.482Z,26.22
2022-09-12T14:04:53.848Z,26.02
2022-09-12T14:07:25.643Z,25.78
2022-09-12T14:10:01.224Z,25.86
2022-09-12T14:12:44.176Z,27.43
2022-09-12T14:15:24.718Z,26.11
2022-09-12T14:17:54.992Z,25.99
2022-09-12T14:20:24.584Z,26.06
2022-09-12T14:22:53.045Z,26.09
2022-09-12T14:25:24.789Z,27.53
2022-09-12T14:27:55.374Z,28.17
2022-09-12T14:30:28.388Z,26.67
2022-09-12T14:33:10.711Z,26.24
2022-09-12T14:35:43.139Z,27.58
2022-09-12T14:38:16.659Z,28.71
2022-09-12T14:40:53.388Z,27.29
2022-09-12T14:43:24.928Z,27.08
2022-09-12T14:46:00.020Z,28.65
2022-09-12T14:48:31.341Z,27.65
2022-09-12T14:50:59.408Z,27.30
2022-09-12T14:53:34.021Z,27.09
2022-09-12T14:56:12.841Z,27.08
2022-09-12T14:58:41.817Z,27.12
2022-09-12T15:01:09.025Z,27.67
2022-09-12T15:03:46.001Z,28.92
2022-09-12T15:06:29.396Z,27.56
2022-09-12T15:08:59.821Z,27.26
2022-09-12T15:11:27.561Z,27.01
2022-09-12T15:13:55.274Z,28.53
2022-09-12T15:16:25.206Z,27.76
2022-09-12T15:18:52.600Z,27.54
2022-09-12T15:21:21.486Z,27.45
2022-09-12T15:23:50.621Z,27.37
2022-09-12T15:26:23.510Z,27.83
2022-09-12T15:28:51.190Z,28.60
2022-09-12T15:31:36.375Z,27.83
2022-09-12T15:34:03.878Z,27.42
2022-09-12T15:36:31.104Z,27.71
2022-09-12T15:38:58.586Z,27.23
2022-09-12T15:41:31.402Z,27.62
2022-09-12T15:43:58.608Z,26.68
2022-09-12T15:46:25.655Z,26.27
2022-09-12T15:48:52.819Z,26.19
2022-09-12T15:51:21.846Z,26.14
2022-09-12T15:53:50.598Z,27.19
2022-09-12T15:56:21.278Z,27.54
2022-09-12T15:58:58.899Z,26.56
2022-09-12T16:01:28.388Z,27.02
2022-09-12T16:03:55.723Z,27.30
2022-09-12T16:06:23.715Z,28.79
2022-09-12T16:08:50.994Z,28.90
2022-09-12T16:11:24.834Z,28.00
2022-09-12T16:13:56.919Z,27.64
2022-09-12T16:16:24.324Z,27.29
2022-09-12T16:18:51.787Z,26.91
2022-09-12T16:21:19.458Z,27.22
2022-09-12T16:23:48.128Z,27.77
2022-09-12T16:26:16.293Z,28.74
2022-09-12T16:28:43.822Z,27.86
2022-09-12T16:31:13.880Z,27.59
2022-09-12T16:33:41.202Z,27.54
2022-09-12T16:36:10.804Z,27.53
2022-09-12T16:38:52.979Z,29.42
2022-09-12T16:41:25.412Z,28.20
2022-09-12T16:43:53.256Z,27.66
2022-09-12T16:46:23.646Z,27.52
2022-09-12T16:48:54.251Z,27.48
2022-09-12T16:51:33.811Z,29.01
2022-09-12T16:54:01.103Z,27.79
2022-09-12T16:56:28.184Z,27.42
2022-09-12T16:58:55.800Z,27.04
2022-09-12T17:01:25.452Z,26.78
2022-09-12T17:03:57.903Z,28.00
2022-09-12T17:06:26.506Z,27.90
2022-09-12T17:08:55.487Z,27.06
2022-09-12T17:11:25.875Z,26.75
2022-09-12T17:14:10.412Z,26.55
2022-09-12T17:16:42.932Z,27.02
2022-09-12T17:19:19.715Z,27.99
2022-09-12T17:21:48.928Z,26.90
2022-09-12T17:24:22.217Z,28.42
2022-09-12T17:26:50.853Z,28.61
2022-09-12T17:29:18.377Z,27.20
2022-09-12T17:31:46.059Z,26.35
2022-09-12T17:34:16.494Z,26.00
2022-09-12T17:36:47.633Z,25.76
2022-09-12T17:39:15.552Z,25.47
2022-09-12T17:41:43.492Z,25.21
2022-09-12T17:44:15.315Z,24.96
2022-09-12T17:46:44.217Z,24.70
2022-09-12T17:49:17.406Z,24.54
2022-09-12T17:51:46.321Z,26.07
2022-09-12T17:54:18.323Z,24.79
2022-09-12T17:56:46.891Z,24.15
2022-09-12T17:59:17.678Z,23.81
2022-09-12T18:02:03.833Z,23.52
2022-09-12T18:04:31.225Z,23.33
2022-09-12T18:07:00.647Z,23.13
2022-09-12T18:09:28.532Z,22.87
2022-09-12T18:11:55.787Z,22.68
2022-09-12T18:14:23.841Z,24.26
2022-09-12T18:16:51.242Z,23.94
2022-09-12T18:19:18.695Z,22.85
2022-09-12T18:21:46.332Z,22.47
2022-09-12T18:24:14.048Z,22.21
2022-09-12T18:26:46.584Z,21.98
2022-09-12T18:29:17.145Z,21.81
2022-09-12T18:31:44.658Z,21.69
2022-09-12T18:34:15.357Z,21.81
2022-09-12T18:36:48.201Z,23.59
2022-09-12T18:39:16.327Z,22.12
2022-09-12T18:41:44.095Z,21.74
2022-09-12T18:44:12.190Z,23.30
2022-09-12T18:46:39.540Z,22.00
2022-09-12T18:49:07.936Z,21.41
2022-09-12T18:51:37.075Z,21.11
2022-09-12T18:54:06.833Z,20.90
2022-09-12T18:56:37.834Z,20.75
2022-09-12T18:59:06.596Z,20.61
2022-09-12T19:01:38.855Z,20.45
2022-09-12T19:04:07.982Z,20.29
2022-09-12T19:06:42.565Z,20.16
2022-09-12T19:09:14.582Z,20.06
2022-09-12T19:11:49.215Z,20.85
2022-09-12T19:14:18.605Z,21.01
2022-09-12T19:16:45.906Z,20.14
2022-09-12T19:19:13.223Z,19.84
2022-09-12T19:21:42.268Z,19.62
2022-09-12T19:24:10.798Z,19.40
2022-09-12T19:26:39.428Z,20.50
2022-09-12T19:29:07.562Z,20.22
2022-09-12T19:31:35.160Z,19.58
2022-09-12T19:34:06.619Z,19.27
2022-09-12T19:36:50.921Z,19.09
2022-09-12T19:39:19.987Z,18.93
2022-09-12T19:41:48.557Z,18.82
2022-09-12T19:44:16.023Z,18.78
2022-09-12T19:46:43.581Z,18.67
2022-09-12T19:49:12.563Z,18.55
2022-09-12T19:51:40.334Z,18.46
2022-09-12T19:54:08.043Z,18.39
2022-09-12T19:56:35.356Z,18.39
2022-09-12T19:59:02.554Z,19.37
2022-09-12T20:01:30.005Z,18.72
2022-09-12T20:03:58.794Z,18.98
2022-09-12T20:06:27.638Z,18.87
2022-09-12T20:08:55.772Z,18.35
2022-09-12T20:11:27.225Z,18.13
2022-09-12T20:13:54.648Z,18.01
2022-09-12T20:16:28.616Z,17.90
2022-09-12T20:18:58.877Z,17.84
2022-09-12T20:21:32.108Z,17.79
2022-09-12T20:24:14.674Z,17.72
2022-09-12T20:26:42.400Z,17.64
2022-09-12T20:29:10.699Z,17.55
2022-09-12T20:31:39.860Z,17.49
2022-09-12T20:34:08.002Z,17.40
2022-09-12T20:36:35.204Z,17.36
2022-09-12T20:39:02.925Z,17.30
2022-09-12T20:41:33.214Z,17.22
2022-09-12T20:44:00.586Z,17.51
2022-09-12T20:46:28.669Z,18.07
2022-09-12T20:48:56.385Z,17.87
2022-09-12T20:51:26.824Z,17.42
2022-09-12T20:53:55.444Z,17.24
2022-09-12T20:56:24.169Z,17.15
2022-09-12T20:58:51.859Z,17.08
2022-09-12T21:01:20.198Z,17.01
2022-09-12T21:03:48.414Z,16.94
2022-09-12T21:06:19.994Z,16.92
2022-09-12T21:08:48.919Z,16.87
2022-09-12T21:11:18.034Z,16.84
2022-09-12T21:13:47.189Z,16.83
2022-09-12T21:16:17.942Z,16.77
2022-09-12T21:18:45.344Z,16.96
2022-09-12T21:21:15.246Z,17.46
2022-09-12T21:23:42.602Z,17.00
2022-09-12T21:26:10.407Z,16.84
2022-09-12T21:28:40.474Z,16.78
2022-09-12T21:31:07.797Z,16.76
2022-09-12T21:33:35.473Z,16.71
2022-09-12T21:36:04.981Z,16.68
2022-09-12T21:38:33.043Z,16.68
2022-09-12T21:41:08.910Z,17.15
2022-09-12T21:43:36.904Z,17.17
2022-09-12T21:46:05.521Z,16.99
2022-09-12T21:48:35.281Z,16.85
2022-09-12T21:51:02.900Z,16.72
2022-09-12T21:53:30.353Z,16.66
2022-09-12T21:56:02.247Z,16.64
2022-09-12T21:58:29.302Z,16.62
2022-09-12T22:00:56.424Z,16.58
2022-09-12T22:03:26.684Z,16.56
2022-09-12T22:05:58.659Z,16.55
2022-09-12T22:08:26.281Z,17.24
2022-09-12T22:10:53.685Z,16.99
2022-09-12T22:13:20.936Z,16.70
2022-09-12T22:15:53.207Z,16.64
2022-09-12T22:18:20.476Z,16.59
2022-09-12T22:20:48.104Z,16.57
2022-09-12T22:23:34.098Z,16.59
2022-09-12T22:26:02.991Z,16.65
2022-09-12T22:28:32.291Z,17.24
2022-09-12T22:30:59.888Z,16.87
2022-09-12T22:33:27.659Z,16.69
2022-09-12T22:35:54.899Z,16.64
2022-09-12T22:38:22.623Z,16.62
2022-09-12T22:40:50.176Z,16.63
2022-09-12T22:43:19.217Z,16.61
2022-09-12T22:45:46.535Z,16.63
2022-09-12T22:48:13.814Z,16.58
2022-09-12T22:50:41.796Z,16.50
2022-09-12T22:53:09.366Z,16.81
2022-09-12T22:55:36.547Z,17.27
2022-09-12T22:58:04.146Z,16.75
2022-09-12T23:00:31.408Z,17.42
2022-09-12T23:02:58.540Z,17.03
2022-09-12T23:05:26.206Z,16.72
2022-09-12T23:07:53.270Z,16.58
2022-09-12T23:10:20.435Z,16.52
2022-09-12T23:12:47.502Z,16.48
2022-09-12T23:15:15.486Z,16.44
2022-09-12T23:17:42.505Z,16.42
2022-09-12T23:20:10.156Z,16.43
2022-09-12T23:22:37.562Z,16.40
2022-09-12T23:25:05.591Z,16.36
2022-09-12T23:27:32.599Z,16.32
2022-09-12T23:29:59.767Z,16.28
2022-09-12T23:32:27.003Z,16.28
2022-09-12T23:34:54.380Z,16.24
2022-09-12T23:37:21.866Z,16.22
2022-09-12T23:39:49.878Z,16.21
2022-09-12T23:42:17.388Z,16.91
2022-09-12T23:44:47.124Z,16.94
2022-09-12T23:47:14.200Z,16.58
2022-09-12T23:49:41.579Z,17.42
2022-09-12T23:52:08.702Z,16.77
2022-09-12T23:54:37.333Z,16.54
2022-09-12T23:57:04.480Z,16.43
2022-09-12T23:59:31.673Z,16.39
